Time;durP1;ratioP1;P1;durP2;ratioP2;P2;SDS_P1;SDS_P2;PMS_P1;PMS_P2;Temp;Humidity;BMP_temperature;BMP_pressure;BME280_temperature;BME280_humidity;BME280_pressure;Samples;Min_cycle;Max_cycle;Signal;HPM_P1;HPM_P2
2021/12/23 00:00:37;;;;;;;42.50;16.50;;;-5.20;99.90;;;;;;5041263;28;20210;-72
2021/12/23 00:03:03;;;;;;;45.70;17.27;;;-5.20;99.90;;;;;;5042565;28;20181;-72
2021/12/23 00:05:29;;;;;;;40.47;18.17;;;-5.10;99.90;;;;;;5041984;28;20424;-72
2021/12/23 00:07:55;;;;;;;42.97;15.40;;;-5.00;99.90;;;;;;5053877;28;20434;-73
2021/12/23 00:10:21;;;;;;;44.30;17.00;;;-5.10;99.90;;;;;;5051278;28;20272;-73
2021/12/23 00:12:47;;;;;;;47.00;18.03;;;-5.10;99.90;;;;;;5049079;28;20234;-72
2021/12/23 00:15:37;;;;;;;35.67;16.43;;;-5.10;99.90;;;;;;5050755;28;20760;-73
2021/12/23 00:18:40;;;;;;;35.70;15.50;;;-5.00;99.90;;;;;;5043160;28;20520;-72
2021/12/23 00:23:58;;;;;;;46.50;17.50;;;-5.00;99.90;;;;;;5052376;28;20454;-72
2021/12/23 00:26:24;;;;;;;36.17;16.13;;;-5.00;99.90;;;;;;5046120;28;20456;-73
2021/12/23 00:28:51;;;;;;;38.20;17.10;;;-5.00;99.90;;;;;;5049958;28;20525;-72
2021/12/23 00:31:17;;;;;;;45.23;16.60;;;-4.90;99.90;;;;;;5055836;28;20456;-73
2021/12/23 00:33:44;;;;;;;48.37;18.40;;;-4.90;99.90;;;;;;5052930;28;20988;-72
2021/12/23 00:36:11;;;;;;;41.90;17.40;;;-4.80;99.90;;;;;;5047348;28;20472;-72
2021/12/23 00:38:50;;;;;;;2.60;1.03;;;-4.70;99.90;;;;;;5047014;28;20423;-73
2021/12/23 00:41:17;;;;;;;1.83;0.93;;;-4.70;99.90;;;;;;5048377;28;21116;-73
2021/12/23 00:43:42;;;;;;;7.50;3.20;;;-4.70;99.90;;;;;;5047007;28;20554;-73
2021/12/23 00:46:08;;;;;;;4.80;1.73;;;-4.80;99.90;;;;;;5046184;28;20499;-73
2021/12/23 00:48:35;;;;;;;4.30;0.93;;;-4.80;99.90;;;;;;5049558;28;20284;-72
2021/12/23 00:51:05;;;;;;;2.30;1.23;;;-4.80;99.90;;;;;;5049967;28;20542;-73
2021/12/23 00:53:37;;;;;;;1.77;0.80;;;-4.80;99.90;;;;;;5049682;28;20435;-73
2021/12/23 00:56:03;;;;;;;3.93;1.70;;;-4.80;99.90;;;;;;5032319;28;20432;-73
2021/12/23 00:58:29;;;;;;;4.30;1.60;;;-4.90;99.90;;;;;;5050553;28;20435;-73
2021/12/23 01:00:54;;;;;;;3.47;1.80;;;-5.00;99.90;;;;;;5047690;28;20467;-73
2021/12/23 01:03:20;;;;;;;6.00;3.33;;;-5.00;99.90;;;;;;5050007;28;21090;-73
2021/12/23 01:05:46;;;;;;;44.07;14.30;;;-5.00;99.90;;;;;;5052392;28;20182;-73
2021/12/23 01:08:12;;;;;;;45.10;17.87;;;-5.00;99.90;;;;;;5033085;28;20551;-72
2021/12/23 01:10:38;;;;;;;40.67;16.33;;;-5.00;99.90;;;;;;5046610;28;20440;-74
2021/12/23 01:13:05;;;;;;;49.23;17.40;;;-4.90;99.90;;;;;;5053065;28;20435;-72
2021/12/23 01:18:11;;;;;;;47.13;17.30;;;-4.70;99.90;;;;;;5050703;28;20436;-73
2021/12/23 01:20:39;;;;;;;41.23;16.97;;;-4.70;99.90;;;;;;5051398;28;20462;-73
2021/12/23 01:23:08;;;;;;;40.23;16.00;;;-4.70;99.90;;;;;;5050831;28;20487;-72
2021/12/23 01:25:37;;;;;;;41.13;15.20;;;-4.70;99.90;;;;;;5050906;28;21402;-73
2021/12/23 01:28:04;;;;;;;43.33;17.57;;;-4.70;99.90;;;;;;5050155;28;20956;-73
2021/12/23 01:30:30;;;;;;;51.97;16.57;;;-4.60;99.90;;;;;;5051714;28;20423;-72
2021/12/23 01:32:56;;;;;;;40.13;15.37;;;-4.60;99.90;;;;;;5051706;28;20546;-73
2021/12/23 01:35:23;;;;;;;47.97;16.27;;;-4.50;99.90;;;;;;5051545;28;20775;-72
2021/12/23 01:37:49;;;;;;;60.03;20.37;;;-4.60;99.90;;;;;;5052106;28;20206;-73
2021/12/23 01:40:17;;;;;;;40.67;16.37;;;-4.60;99.90;;;;;;5052535;28;20483;-73
2021/12/23 01:42:43;;;;;;;45.90;17.80;;;-4.60;99.90;;;;;;5049996;28;20889;-73
2021/12/23 01:45:17;;;;;;;44.43;18.50;;;-4.60;99.90;;;;;;5055522;28;20608;-73
2021/12/23 01:47:44;;;;;;;35.63;15.80;;;-4.60;99.90;;;;;;5049831;28;20424;-73
2021/12/23 01:50:12;;;;;;;44.37;18.10;;;-4.60;99.90;;;;;;5052993;28;20424;-73
2021/12/23 01:52:41;;;;;;;41.87;18.27;;;-4.50;99.90;;;;;;5049737;28;20478;-73
2021/12/23 01:55:08;;;;;;;41.00;14.97;;;-4.50;99.90;;;;;;5053181;28;20958;-73
2021/12/23 01:57:34;;;;;;;45.17;16.40;;;-4.40;99.90;;;;;;5053647;28;20566;-73
2021/12/23 02:00:05;;;;;;;43.80;14.57;;;-4.40;99.90;;;;;;5053683;28;20472;-73
2021/12/23 02:02:32;;;;;;;34.63;13.53;;;-4.40;99.90;;;;;;5053453;28;21189;-73
2021/12/23 02:04:58;;;;;;;59.57;19.57;;;-4.40;99.90;;;;;;5045462;28;20436;-72
2021/12/23 02:07:24;;;;;;;34.10;14.53;;;-4.40;99.90;;;;;;5048516;28;20432;-73
2021/12/23 02:09:49;;;;;;;36.30;14.67;;;-4.40;99.90;;;;;;5053789;28;20428;-73
2021/12/23 02:12:16;;;;;;;40.77;17.50;;;-4.40;99.90;;;;;;5048675;28;20225;-73
2021/12/23 02:14:42;;;;;;;43.00;17.80;;;-4.40;99.90;;;;;;5059937;28;20201;-73
2021/12/23 02:17:08;;;;;;;67.23;9.93;;;-4.40;99.90;;;;;;5053329;28;20543;-73
2021/12/23 02:19:34;;;;;;;36.53;15.30;;;-4.40;99.90;;;;;;5047784;28;20463;-73
2021/12/23 02:22:00;;;;;;;48.37;17.60;;;-4.40;99.90;;;;;;5048193;28;20261;-73
2021/12/23 02:24:25;;;;;;;3.83;2.67;;;-4.40;99.90;;;;;;5049906;28;20547;-73
2021/12/23 02:26:51;;;;;;;2.07;0.77;;;-4.30;99.90;;;;;;5047776;28;20420;-72
2021/12/23 02:29:17;;;;;;;37.87;14.73;;;-4.30;99.90;;;;;;5048836;28;20198;-72
2021/12/23 02:31:51;;;;;;;4.70;2.00;;;-4.30;99.90;;;;;;5050277;28;20194;-72
2021/12/23 02:34:19;;;;;;;43.30;15.47;;;-4.30;99.90;;;;;;5048957;28;20463;-73
2021/12/23 02:36:52;;;;;;;30.87;13.30;;;-4.20;99.90;;;;;;5050390;28;20427;-73
2021/12/23 02:39:20;;;;;;;41.23;16.13;;;-4.10;99.90;;;;;;5049461;28;20471;-73
2021/12/23 02:41:47;;;;;;;2.03;0.83;;;-4.10;99.90;;;;;;5052519;28;20486;-73
2021/12/23 02:44:13;;;;;;;3.70;1.83;;;-4.10;99.90;;;;;;5049207;28;20499;-72
2021/12/23 02:46:39;;;;;;;33.97;13.10;;;-4.00;99.90;;;;;;5055157;28;20787;-73
2021/12/23 02:49:05;;;;;;;4.20;1.07;;;-4.00;99.90;;;;;;5050172;28;20423;-73
2021/12/23 02:51:30;;;;;;;41.40;15.40;;;-4.00;99.90;;;;;;5051687;28;20545;-73
2021/12/23 02:53:56;;;;;;;35.20;13.00;;;-4.00;99.90;;;;;;5050613;28;20642;-72
2021/12/23 02:56:22;;;;;;;32.10;15.03;;;-4.00;99.90;;;;;;5052683;28;20965;-73
2021/12/23 02:58:47;;;;;;;31.80;13.80;;;-4.00;99.90;;;;;;5053857;28;20505;-72
2021/12/23 03:01:16;;;;;;;35.33;13.60;;;-3.90;99.90;;;;;;5055763;28;20217;-73
2021/12/23 03:03:43;;;;;;;34.20;13.27;;;-3.90;99.90;;;;;;5051490;28;20186;-73
2021/12/23 03:06:11;;;;;;;43.13;14.50;;;-3.90;99.90;;;;;;5056842;28;20970;-72
2021/12/23 03:08:40;;;;;;;32.73;14.23;;;-3.90;99.90;;;;;;5051458;28;20459;-72
2021/12/23 03:11:07;;;;;;;44.83;16.43;;;-3.80;99.90;;;;;;5048416;28;20463;-72
2021/12/23 03:13:33;;;;;;;41.97;15.43;;;-3.80;99.90;;;;;;5049102;28;20554;-72
2021/12/23 03:15:59;;;;;;;43.00;14.20;;;-3.80;99.90;;;;;;5048185;28;20601;-72
2021/12/23 03:18:26;;;;;;;37.93;12.77;;;-3.80;99.90;;;;;;5048461;28;20197;-72
2021/12/23 03:20:52;;;;;;;27.87;12.17;;;-3.80;99.90;;;;;;5048609;28;20466;-72
2021/12/23 03:23:18;;;;;;;35.37;14.33;;;-3.80;99.90;;;;;;5049612;28;20431;-72
2021/12/23 03:25:44;;;;;;;31.53;12.73;;;-3.80;99.90;;;;;;5050670;28;21058;-72
2021/12/23 03:28:10;;;;;;;36.37;14.43;;;-3.80;99.90;;;;;;5049623;28;20431;-72
2021/12/23 03:30:36;;;;;;;44.20;17.23;;;-3.70;99.90;;;;;;5052416;28;20197;-72
2021/12/23 03:33:01;;;;;;;41.40;14.87;;;-3.70;99.90;;;;;;5047866;28;20602;-72
2021/12/23 03:35:27;;;;;;;40.60;13.83;;;-3.80;99.90;;;;;;5051025;28;20272;-72
2021/12/23 03:37:53;;;;;;;36.30;15.10;;;-3.70;99.90;;;;;;5048124;28;20315;-72
2021/12/23 03:40:20;;;;;;;41.50;14.80;;;-3.70;99.90;;;;;;5048302;28;20218;-72
2021/12/23 03:42:46;;;;;;;38.10;15.03;;;-3.70;99.90;;;;;;5048365;28;20432;-72
2021/12/23 03:45:12;;;;;;;34.07;13.20;;;-3.70;99.90;;;;;;5052277;28;20423;-72
2021/12/23 03:47:39;;;;;;;37.00;15.57;;;-3.70;99.90;;;;;;5047688;28;20178;-72
2021/12/23 03:50:06;;;;;;;31.57;13.20;;;-3.70;99.90;;;;;;5048134;28;20448;-73
2021/12/23 03:52:31;;;;;;;32.23;13.63;;;-3.70;99.90;;;;;;5047806;28;20424;-72
2021/12/23 03:54:57;;;;;;;33.50;14.30;;;-3.80;99.90;;;;;;5057867;28;20449;-72
2021/12/23 03:57:23;;;;;;;35.67;13.67;;;-3.80;99.90;;;;;;5054292;28;20424;-72
2021/12/23 03:59:48;;;;;;;36.93;14.70;;;-3.80;99.90;;;;;;5047695;28;20205;-72
2021/12/23 04:02:14;;;;;;;34.37;13.67;;;-3.80;99.90;;;;;;5053028;28;20198;-72
2021/12/23 04:04:40;;;;;;;29.83;13.47;;;-3.90;99.90;;;;;;5051252;28;20231;-73
2021/12/23 04:07:06;;;;;;;29.97;12.03;;;-3.80;99.90;;;;;;5043637;28;20417;-72
2021/12/23 04:09:31;;;;;;;45.00;14.20;;;-3.80;99.90;;;;;;5048522;28;20574;-72
2021/12/23 04:11:57;;;;;;;39.50;13.27;;;-3.70;99.90;;;;;;5047729;28;20185;-72
2021/12/23 04:14:23;;;;;;;34.60;12.57;;;-3.70;99.90;;;;;;5048936;28;20221;-72
2021/12/23 04:16:49;;;;;;;28.77;13.20;;;-3.70;99.90;;;;;;5048003;28;20260;-72
2021/12/23 04:19:14;;;;;;;41.53;14.20;;;-3.70;99.90;;;;;;5049352;28;20192;-72
2021/12/23 04:21:41;;;;;;;41.60;13.10;;;-3.70;99.90;;;;;;5049719;28;20803;-72
2021/12/23 04:24:07;;;;;;;32.33;12.80;;;-3.70;99.90;;;;;;5050048;28;20220;-72
2021/12/23 04:26:34;;;;;;;30.43;12.63;;;-3.70;99.90;;;;;;5049199;28;20858;-72
2021/12/23 04:29:00;;;;;;;35.73;13.47;;;-3.70;99.90;;;;;;5050334;28;20427;-72
2021/12/23 04:31:25;;;;;;;35.53;11.63;;;-3.60;99.90;;;;;;5047003;28;20511;-72
2021/12/23 04:33:53;;;;;;;38.23;13.87;;;-3.60;99.90;;;;;;5026445;28;20184;-72
2021/12/23 04:36:19;;;;;;;30.80;13.20;;;-3.60;99.90;;;;;;5050804;28;20283;-73
2021/12/23 04:38:46;;;;;;;33.33;13.80;;;-3.50;99.90;;;;;;5052085;28;20432;-72
2021/12/23 04:41:13;;;;;;;32.30;14.27;;;-3.50;99.90;;;;;;5051375;28;20474;-72
2021/12/23 04:43:40;;;;;;;30.60;13.83;;;-3.40;99.90;;;;;;5049114;28;20949;-72
2021/12/23 04:46:06;;;;;;;35.87;14.50;;;-3.60;99.90;;;;;;5046080;28;20416;-72
2021/12/23 04:48:33;;;;;;;35.73;14.13;;;-3.50;99.90;;;;;;5052145;28;20504;-72
2021/12/23 04:50:59;;;;;;;30.40;13.60;;;-3.50;99.90;;;;;;5054265;28;20419;-72
2021/12/23 04:53:25;;;;;;;37.37;14.60;;;-3.50;99.90;;;;;;5057537;28;20424;-72
2021/12/23 04:55:51;;;;;;;33.40;12.10;;;-3.50;99.90;;;;;;5050200;28;20427;-72
2021/12/23 04:58:17;;;;;;;32.53;13.07;;;-3.50;99.90;;;;;;5057735;28;20462;-72
2021/12/23 05:00:47;;;;;;;48.13;14.80;;;-3.40;99.90;;;;;;5051135;28;20239;-72
2021/12/23 05:03:21;;;;;;;43.23;13.73;;;-3.40;99.90;;;;;;5050267;28;20457;-72
2021/12/23 05:05:47;;;;;;;43.00;14.23;;;-3.30;99.90;;;;;;5051895;28;20424;-72
2021/12/23 05:08:13;;;;;;;36.20;13.97;;;-3.30;99.90;;;;;;5052709;28;20462;-72
2021/12/23 05:10:39;;;;;;;31.07;12.87;;;-3.30;99.90;;;;;;5052786;28;20566;-72
2021/12/23 05:13:05;;;;;;;26.70;11.17;;;-3.30;99.90;;;;;;5053454;28;20555;-72
2021/12/23 05:15:31;;;;;;;31.30;13.00;;;-3.40;99.90;;;;;;5052609;28;20485;-73
2021/12/23 05:17:58;;;;;;;30.83;12.57;;;-3.40;99.90;;;;;;5051594;28;20984;-72
2021/12/23 05:20:24;;;;;;;35.77;13.10;;;-3.40;99.90;;;;;;5051139;28;20463;-72
2021/12/23 05:22:50;;;;;;;39.20;15.23;;;-3.30;99.90;;;;;;5055882;28;20420;-73
2021/12/23 05:25:17;;;;;;;39.90;14.80;;;-3.40;99.90;;;;;;5050045;28;20507;-72
2021/12/23 05:27:44;;;;;;;38.50;13.33;;;-3.40;99.90;;;;;;5055051;28;20486;-72
2021/12/23 05:30:12;;;;;;;40.00;13.60;;;-3.40;99.90;;;;;;5054410;28;20424;-73
2021/12/23 05:32:38;;;;;;;41.37;14.63;;;-3.50;99.90;;;;;;5056535;28;20980;-73
2021/12/23 05:35:05;;;;;;;35.83;12.27;;;-3.40;99.90;;;;;;5051134;28;20427;-73
2021/12/23 05:37:31;;;;;;;36.40;13.73;;;-3.50;99.90;;;;;;5050892;28;20455;-72
2021/12/23 05:39:57;;;;;;;33.73;13.57;;;-3.60;99.90;;;;;;5049857;28;20872;-72
2021/12/23 05:42:22;;;;;;;37.57;13.47;;;-3.70;99.90;;;;;;5056062;28;20184;-72
2021/12/23 05:44:48;;;;;;;32.93;13.47;;;-3.70;99.90;;;;;;5057380;28;20763;-72
2021/12/23 05:47:14;;;;;;;43.80;13.80;;;-3.70;99.90;;;;;;5053844;28;20193;-72
2021/12/23 05:49:39;;;;;;;42.00;11.60;;;-3.60;99.90;;;;;;5056601;28;20193;-72
2021/12/23 05:52:05;;;;;;;39.47;16.00;;;-3.70;99.90;;;;;;5050375;28;20664;-72
2021/12/23 05:54:31;;;;;;;38.53;15.00;;;-3.70;99.90;;;;;;5051143;28;20196;-72
2021/12/23 05:57:01;;;;;;;38.00;13.60;;;-3.60;99.90;;;;;;5050417;28;20416;-72
2021/12/23 05:59:29;;;;;;;55.23;13.60;;;-3.50;99.90;;;;;;5049669;28;20208;-71
2021/12/23 06:01:54;;;;;;;41.70;13.27;;;-3.50;99.90;;;;;;5050250;28;20427;-72
2021/12/23 06:04:20;;;;;;;37.50;12.70;;;-3.50;99.90;;;;;;5050902;28;20412;-72
2021/12/23 06:06:46;;;;;;;22.80;10.90;;;-3.40;99.90;;;;;;5043912;28;20182;-72
2021/12/23 06:09:11;;;;;;;31.07;11.50;;;-3.30;99.90;;;;;;5048960;28;20178;-73
2021/12/23 06:11:37;;;;;;;25.57;11.10;;;-3.30;99.90;;;;;;5050813;28;20201;-73
2021/12/23 06:14:03;;;;;;;29.73;12.03;;;-3.20;99.90;;;;;;5053296;28;20282;-73
2021/12/23 06:16:28;;;;;;;45.37;13.53;;;-3.10;99.90;;;;;;5050980;28;20247;-73
2021/12/23 06:18:54;;;;;;;31.03;12.20;;;-3.10;99.90;;;;;;5054251;28;20186;-73
2021/12/23 06:21:22;;;;;;;35.73;12.70;;;-3.00;99.90;;;;;;5054971;28;20213;-73
2021/12/23 06:23:47;;;;;;;35.73;11.83;;;-2.90;99.90;;;;;;5051567;28;20557;-73
2021/12/23 06:26:13;;;;;;;20.80;9.83;;;-2.90;99.90;;;;;;5050858;28;20452;-73
2021/12/23 06:28:38;;;;;;;23.37;11.30;;;-2.80;99.90;;;;;;5051247;28;20181;-73
2021/12/23 06:31:04;;;;;;;20.50;10.50;;;-2.80;99.90;;;;;;5056773;28;20232;-73
2021/12/23 06:33:30;;;;;;;32.97;11.80;;;-2.80;99.90;;;;;;5054485;28;20186;-73
2021/12/23 06:35:56;;;;;;;32.73;10.90;;;-2.70;99.90;;;;;;5053418;28;20308;-73
2021/12/23 06:38:21;;;;;;;34.33;11.50;;;-2.60;99.90;;;;;;5048954;28;20192;-73
2021/12/23 06:40:47;;;;;;;22.60;10.60;;;-2.60;99.90;;;;;;5048690;28;20975;-73
2021/12/23 06:43:13;;;;;;;28.90;11.73;;;-2.60;99.90;;;;;;5056554;28;20186;-73
2021/12/23 06:45:38;;;;;;;30.63;10.83;;;-2.50;99.90;;;;;;5053604;28;20189;-73
2021/12/23 06:48:05;;;;;;;24.07;11.10;;;-2.60;99.90;;;;;;5048588;28;20181;-73
2021/12/23 06:50:31;;;;;;;28.27;11.93;;;-2.50;99.90;;;;;;5049806;28;20339;-73
2021/12/23 06:52:58;;;;;;;28.90;12.47;;;-2.50;99.90;;;;;;5050331;28;20847;-73
2021/12/23 06:55:24;;;;;;;44.93;13.13;;;-2.60;99.90;;;;;;5048404;28;20472;-73
2021/12/23 06:57:54;;;;;;;36.67;14.97;;;-2.60;99.90;;;;;;5050035;28;20517;-73
2021/12/23 07:00:21;;;;;;;39.70;16.10;;;-2.60;99.90;;;;;;5044575;28;20320;-73
2021/12/23 07:02:47;;;;;;;33.50;12.70;;;-2.60;99.90;;;;;;5050534;28;20820;-73
2021/12/23 07:05:14;;;;;;;28.77;12.60;;;-2.70;99.90;;;;;;5050713;28;20451;-73
2021/12/23 07:07:42;;;;;;;25.57;11.50;;;-2.70;99.90;;;;;;5053785;28;20565;-73
2021/12/23 07:10:09;;;;;;;31.43;10.10;;;-2.70;99.90;;;;;;5033612;28;20784;-73
2021/12/23 07:12:35;;;;;;;31.07;11.27;;;-2.70;99.90;;;;;;5050831;28;20415;-73
2021/12/23 07:15:00;;;;;;;32.60;12.43;;;-2.70;99.90;;;;;;5044919;28;20451;-73
2021/12/23 07:17:26;;;;;;;28.17;11.23;;;-2.70;99.90;;;;;;5045834;28;20257;-73
2021/12/23 07:19:52;;;;;;;26.20;10.27;;;-2.70;99.90;;;;;;5047473;28;20235;-73
2021/12/23 07:22:17;;;;;;;29.47;10.13;;;-2.60;99.90;;;;;;5050308;28;20184;-72
2021/12/23 07:24:43;;;;;;;26.90;10.40;;;-2.60;99.90;;;;;;5048716;28;20182;-73
2021/12/23 07:27:09;;;;;;;26.13;10.17;;;-2.60;99.90;;;;;;5049640;28;20276;-72
2021/12/23 07:29:35;;;;;;;23.43;9.53;;;-2.60;99.90;;;;;;5047059;28;20213;-73
2021/12/23 07:32:03;;;;;;;27.50;9.40;;;-2.60;99.90;;;;;;5050277;28;20451;-72
2021/12/23 07:34:30;;;;;;;22.27;10.37;;;-2.50;99.90;;;;;;5049178;28;20458;-73
2021/12/23 07:36:56;;;;;;;27.53;11.30;;;-2.50;99.90;;;;;;5051846;28;20542;-73
2021/12/23 07:39:22;;;;;;;19.27;9.73;;;-2.50;99.90;;;;;;5047714;28;21429;-73
2021/12/23 07:41:48;;;;;;;30.23;9.60;;;-2.50;99.90;;;;;;5046920;28;20197;-73
2021/12/23 07:44:20;;;;;;;24.13;9.43;;;-2.30;99.90;;;;;;5046762;28;20444;-73
2021/12/23 07:46:47;;;;;;;23.20;9.80;;;-2.30;99.90;;;;;;5046298;28;20182;-73
2021/12/23 07:49:13;;;;;;;29.37;11.33;;;-2.30;99.90;;;;;;5047870;28;20431;-73
2021/12/23 07:51:39;;;;;;;26.53;8.60;;;-2.20;99.90;;;;;;5048189;28;20754;-73
2021/12/23 07:54:04;;;;;;;26.40;10.40;;;-2.10;99.90;;;;;;5048073;28;20185;-73
2021/12/23 07:56:30;;;;;;;20.93;9.17;;;-2.20;99.90;;;;;;5055647;28;20427;-73
2021/12/23 07:58:56;;;;;;;27.50;10.37;;;-2.10;99.90;;;;;;5048199;28;20178;-73
2021/12/23 08:01:21;;;;;;;30.07;10.50;;;-2.10;99.90;;;;;;5046807;28;20220;-73
2021/12/23 08:03:47;;;;;;;21.67;10.27;;;-2.00;99.90;;;;;;5044907;28;20181;-73
2021/12/23 08:06:13;;;;;;;27.30;10.50;;;-2.00;99.90;;;;;;5045974;28;20267;-73
2021/12/23 08:08:39;;;;;;;22.13;9.50;;;-1.90;99.90;;;;;;5047147;28;20280;-73
2021/12/23 08:11:06;;;;;;;21.83;10.07;;;-1.80;99.90;;;;;;5040465;28;20616;-73
2021/12/23 08:13:32;;;;;;;32.63;11.40;;;-1.70;99.90;;;;;;5048375;28;20447;-73
2021/12/23 08:16:00;;;;;;;27.03;9.73;;;-1.70;99.90;;;;;;5050929;28;20430;-73
2021/12/23 08:18:26;;;;;;;28.13;9.17;;;-1.70;99.90;;;;;;5045698;28;20438;-75
2021/12/23 08:20:52;;;;;;;22.37;9.13;;;-1.70;99.90;;;;;;5043147;28;20476;-73
2021/12/23 08:23:18;;;;;;;24.67;11.50;;;-1.50;99.90;;;;;;5047018;28;21201;-73
2021/12/23 08:25:44;;;;;;;24.20;9.30;;;-1.40;99.90;;;;;;5047254;28;20182;-73
2021/12/23 08:28:11;;;;;;;42.37;9.63;;;-1.30;99.90;;;;;;5045636;28;20222;-72
2021/12/23 08:30:39;;;;;;;21.50;10.77;;;-1.20;99.90;;;;;;5043714;28;20428;-73
2021/12/23 08:33:06;;;;;;;25.40;10.43;;;-1.10;99.90;;;;;;5041872;28;20600;-74
2021/12/23 08:35:31;;;;;;;26.60;11.60;;;-1.00;99.90;;;;;;5046327;28;20504;-74
2021/12/23 08:37:57;;;;;;;23.93;8.70;;;-0.90;99.90;;;;;;5047822;28;20901;-73
2021/12/23 08:40:26;;;;;;;18.47;8.37;;;-0.70;99.90;;;;;;5041113;28;20236;-74
2021/12/23 08:42:52;;;;;;;24.00;10.30;;;-0.60;99.90;;;;;;5044896;28;20189;-74
2021/12/23 08:45:19;;;;;;;27.40;10.27;;;-0.70;99.90;;;;;;5047148;28;20420;-74
2021/12/23 08:47:45;;;;;;;33.20;9.97;;;-0.60;99.90;;;;;;5053735;28;20446;-74
2021/12/23 08:50:14;;;;;;;15.50;6.70;;;-0.60;99.90;;;;;;5045232;28;20431;-74
2021/12/23 08:52:40;;;;;;;23.70;9.47;;;-0.70;99.90;;;;;;5050352;28;20424;-74
2021/12/23 08:55:08;;;;;;;18.10;8.73;;;-0.60;99.90;;;;;;5053248;28;20469;-75
2021/12/23 08:57:34;;;;;;;25.30;8.97;;;-0.60;99.90;;;;;;5046423;28;20748;-73
2021/12/23 08:59:59;;;;;;;23.47;9.83;;;-0.50;99.90;;;;;;5046548;28;20463;-73
2021/12/23 09:02:25;;;;;;;26.87;10.53;;;-0.60;99.90;;;;;;5046465;28;20851;-73
2021/12/23 09:04:51;;;;;;;17.80;8.57;;;-0.40;99.90;;;;;;5045209;28;20256;-73
2021/12/23 09:07:17;;;;;;;25.67;10.67;;;-0.40;99.90;;;;;;5045231;28;20408;-73
2021/12/23 09:09:46;;;;;;;19.07;7.33;;;-0.30;99.90;;;;;;5044392;28;20182;-73
2021/12/23 09:12:12;;;;;;;20.43;8.87;;;-0.20;99.90;;;;;;5039082;28;20475;-73
2021/12/23 09:14:38;;;;;;;17.03;7.70;;;-0.10;99.90;;;;;;5046547;28;20837;-73
2021/12/23 09:17:04;;;;;;;19.33;7.30;;;0.00;99.90;;;;;;5041613;28;20194;-73
2021/12/23 09:19:30;;;;;;;20.97;8.20;;;0.00;99.90;;;;;;5047237;28;20255;-73
2021/12/23 09:21:56;;;;;;;20.47;8.80;;;0.10;99.90;;;;;;5050273;28;20232;-73
2021/12/23 09:24:23;;;;;;;21.93;8.17;;;0.00;99.90;;;;;;5050035;28;20900;-73
2021/12/23 09:26:58;;;;;;;22.23;7.77;;;0.10;99.90;;;;;;5052390;28;20431;-73
2021/12/23 09:34:48;;;;;;;19.17;7.57;;;0.10;99.90;;;;;;5047811;28;21073;-73
2021/12/23 09:37:14;;;;;;;16.23;6.43;;;0.20;99.90;;;;;;5056317;28;20416;-73
2021/12/23 09:39:39;;;;;;;18.97;7.20;;;0.30;99.90;;;;;;5044533;28;20210;-74
2021/12/23 09:42:05;;;;;;;19.00;7.87;;;0.50;99.90;;;;;;5058365;28;20443;-73
2021/12/23 09:44:32;;;;;;;20.57;6.80;;;0.50;99.90;;;;;;5055355;28;20186;-74
2021/12/23 09:47:02;;;;;;;17.23;7.73;;;0.60;99.90;;;;;;5049770;28;20941;-74
2021/12/23 09:49:30;;;;;;;14.53;7.07;;;0.70;99.90;;;;;;5046669;28;20440;-74
2021/12/23 09:51:56;;;;;;;18.43;6.63;;;0.80;99.90;;;;;;5055393;28;20976;-74
2021/12/23 09:54:25;;;;;;;16.40;6.63;;;0.90;99.90;;;;;;5051775;28;20506;-74
2021/12/23 09:56:52;;;;;;;43.37;6.57;;;1.00;99.90;;;;;;5050067;28;20424;-74
2021/12/23 09:59:19;;;;;;;11.57;5.03;;;1.00;99.90;;;;;;5049704;28;20436;-74
2021/12/23 10:01:45;;;;;;;14.07;6.53;;;1.10;99.90;;;;;;5049895;28;20427;-74
2021/12/23 10:04:10;;;;;;;16.37;6.87;;;1.20;99.90;;;;;;5050922;28;20435;-75
2021/12/23 10:06:36;;;;;;;16.57;6.60;;;1.30;99.90;;;;;;5051133;28;20184;-75
2021/12/23 10:09:03;;;;;;;18.90;7.67;;;1.40;99.90;;;;;;5051497;28;20245;-75
2021/12/23 10:12:34;;;;;;;16.07;6.70;;;1.40;99.90;;;;;;5051916;28;20186;-75
2021/12/23 10:31:08;;;;;;;13.00;6.10;;;1.80;99.90;;;;;;5055761;28;20429;-75
2021/12/23 10:37:05;;;;;;;16.27;6.23;;;1.80;99.90;;;;;;5055154;28;20424;-74
2021/12/23 10:39:25;;;;;;;11.20;4.90;;;1.90;99.90;;;;;;4925486;28;20593;-75
2021/12/23 10:42:06;;;;;;;13.47;7.10;;;1.90;99.90;;;;;;5000364;28;21192;-74
2021/12/23 10:44:32;;;;;;;17.63;7.13;;;1.80;99.90;;;;;;4990880;28;20434;-74
2021/12/23 10:46:59;;;;;;;13.60;6.07;;;1.80;99.90;;;;;;4989804;28;20423;-75
2021/12/23 10:49:39;;;;;;;18.07;7.70;;;1.90;99.90;;;;;;4992611;28;20191;-75
2021/12/23 10:52:09;;;;;;;18.73;7.23;;;1.90;99.90;;;;;;4990823;28;20442;-75
2021/12/23 11:00:27;;;;;;;12.00;5.40;;;2.00;99.90;;;;;;4991415;28;20556;-75
2021/12/23 11:03:12;;;;;;;14.60;6.23;;;2.20;99.90;;;;;;4994645;28;20430;-75
2021/12/23 11:05:48;;;;;;;10.83;5.17;;;2.20;99.90;;;;;;4980727;28;20758;-75
2021/12/23 11:38:09;;;;;;;7.80;4.10;;;3.50;99.40;;;;;;4992149;28;20499;-75
2021/12/23 11:45:32;;;;;;;8.00;2.80;;;3.60;99.10;;;;;;4988368;28;20423;-75
2021/12/23 11:47:58;;;;;;;8.30;3.80;;;3.70;99.00;;;;;;4987840;28;20492;-75
2021/12/23 11:50:32;;;;;;;6.07;2.70;;;3.80;98.90;;;;;;4988371;28;20423;-75
2021/12/23 11:52:58;;;;;;;5.90;2.87;;;3.90;98.70;;;;;;4989336;28;20427;-75
2021/12/23 11:55:24;;;;;;;6.87;3.73;;;4.00;98.60;;;;;;4988577;28;20443;-74
2021/12/23 11:57:52;;;;;;;6.17;2.70;;;4.10;98.60;;;;;;4989846;28;20422;-74
2021/12/23 12:00:32;;;;;;;9.87;4.20;;;4.20;98.30;;;;;;4985142;28;20215;-75
2021/12/23 12:03:06;;;;;;;8.07;3.83;;;4.20;98.30;;;;;;4990063;28;20431;-75
2021/12/23 12:05:33;;;;;;;7.70;3.60;;;4.30;98.40;;;;;;4990309;28;20431;-74
2021/12/23 12:08:15;;;;;;;8.07;4.00;;;4.30;97.90;;;;;;4993371;28;21030;-76
2021/12/23 12:10:42;;;;;;;8.90;4.30;;;4.40;97.80;;;;;;4985070;28;20993;-76
2021/12/23 12:13:15;;;;;;;11.27;4.93;;;4.40;97.80;;;;;;4991097;28;20926;-77
2021/12/23 12:15:42;;;;;;;9.03;4.37;;;4.30;97.70;;;;;;4985957;28;20435;-77
2021/12/23 12:18:21;;;;;;;9.90;3.93;;;4.40;97.90;;;;;;4982538;28;20427;-77
2021/12/23 12:20:52;;;;;;;8.00;4.00;;;4.40;97.60;;;;;;4989089;28;20822;-77
2021/12/23 12:23:36;;;;;;;8.40;3.90;;;4.40;97.40;;;;;;4989737;28;20522;-77
2021/12/23 12:26:24;;;;;;;10.40;3.73;;;4.30;97.60;;;;;;4988458;28;21052;-76
2021/12/23 12:28:50;;;;;;;10.23;3.40;;;4.30;97.50;;;;;;4982209;28;20733;-76
2021/12/23 12:31:26;;;;;;;11.13;4.10;;;4.40;97.40;;;;;;4986380;28;20806;-76
2021/12/23 12:34:02;;;;;;;7.90;3.30;;;4.50;97.40;;;;;;4982712;28;20458;-76
2021/12/23 12:36:28;;;;;;;16.70;3.77;;;4.50;97.10;;;;;;4987906;28;20860;-76
2021/12/23 12:39:02;;;;;;;9.20;4.07;;;4.50;97.20;;;;;;4991253;28;20435;-76
2021/12/23 12:41:37;;;;;;;14.10;3.67;;;4.50;97.20;;;;;;4987395;28;21258;-76
2021/12/23 12:44:32;;;;;;;7.00;4.10;;;4.50;97.20;;;;;;4988840;28;20457;-76
2021/12/23 12:47:18;;;;;;;11.43;3.97;;;4.50;97.00;;;;;;4982418;28;20414;-76
2021/12/23 12:49:48;;;;;;;9.10;3.60;;;4.50;97.10;;;;;;4987821;28;21436;-76
2021/12/23 12:52:36;;;;;;;12.60;4.10;;;4.50;97.10;;;;;;4987559;28;20514;-77
2021/12/23 12:55:11;;;;;;;9.47;4.47;;;4.60;97.20;;;;;;4986790;28;20447;-76
2021/12/23 12:57:41;;;;;;;10.80;4.03;;;4.40;97.30;;;;;;4981830;28;20818;-76
2021/12/23 13:00:18;;;;;;;9.03;3.63;;;4.40;97.10;;;;;;4987935;28;20514;-76
2021/12/23 13:02:54;;;;;;;6.77;3.47;;;4.50;97.30;;;;;;4988576;28;20517;-76
2021/12/23 13:05:26;;;;;;;8.90;4.00;;;4.40;97.30;;;;;;4995578;28;20449;-76
2021/12/23 13:07:52;;;;;;;7.80;4.17;;;4.40;97.30;;;;;;4988563;28;20417;-76
2021/12/23 13:10:21;;;;;;;11.57;3.90;;;4.40;97.40;;;;;;4987512;28;20435;-76
2021/12/23 13:12:48;;;;;;;5.80;3.90;;;4.30;97.40;;;;;;4989217;28;20565;-76
2021/12/23 13:15:21;;;;;;;7.93;3.90;;;4.30;97.50;;;;;;4991434;28;20423;-76
2021/12/23 13:17:57;;;;;;;9.57;4.20;;;4.40;97.50;;;;;;4995641;28;20423;-77
2021/12/23 13:20:40;;;;;;;10.73;3.80;;;4.40;97.60;;;;;;4991528;28;20454;-76
2021/12/23 13:23:12;;;;;;;12.90;3.57;;;4.40;97.60;;;;;;4987007;28;20435;-76
2021/12/23 13:25:46;;;;;;;5.97;3.10;;;4.40;97.80;;;;;;4986104;28;20446;-76
2021/12/23 13:28:23;;;;;;;10.70;4.23;;;4.40;97.80;;;;;;4997902;28;20842;-76
2021/12/23 13:30:49;;;;;;;10.57;4.27;;;4.50;97.70;;;;;;4988496;28;20474;-76
2021/12/23 13:33:15;;;;;;;14.87;4.83;;;4.50;97.90;;;;;;5001996;28;20491;-76
2021/12/23 13:35:41;;;;;;;14.03;5.50;;;4.50;97.70;;;;;;4998204;28;20903;-76
2021/12/23 13:38:06;;;;;;;13.53;3.93;;;4.50;97.70;;;;;;4996649;28;20184;-76
2021/12/23 13:40:38;;;;;;;6.47;3.07;;;4.50;97.70;;;;;;4995526;28;20553;-76
2021/12/23 13:43:04;;;;;;;7.93;3.03;;;4.50;97.70;;;;;;4991758;28;20203;-76
2021/12/23 13:45:30;;;;;;;11.57;4.10;;;4.50;97.40;;;;;;4990699;28;20423;-77
2021/12/23 13:47:58;;;;;;;10.83;3.20;;;4.50;97.50;;;;;;4992678;28;20419;-76
2021/12/23 13:50:27;;;;;;;7.57;3.70;;;4.60;97.50;;;;;;4992068;28;20419;-77